Time;durP1;ratioP1;P1;durP2;ratioP2;P2;SDS_P1;SDS_P2;PMS_P1;PMS_P2;Temp;Humidity;BMP_temperature;BMP_pressure;BME280_temperature;BME280_humidity;BME280_pressure;Samples;Min_cycle;Max_cycle;Signal;HPM_P1;HPM_P2
2022/01/20 00:02:01;;;;;;;30.48;14.60;;;6.00;66.40;;;;;;5074470;28;20039;-21
2022/01/20 00:23:28;;;;;;;20.63;9.18;;;6.00;67.60;;;;;;5073703;28;19961;-20
2022/01/20 00:28:27;;;;;;;51.05;20.38;;;6.00;66.30;;;;;;5073101;28;20033;-20
2022/01/20 00:33:46;;;;;;;24.05;10.32;;;6.00;67.20;;;;;;5062764;28;20048;-20
2022/01/20 00:38:42;;;;;;;36.45;16.65;;;5.90;66.90;;;;;;5073150;28;20033;-20
2022/01/20 00:41:15;;;;;;;29.27;13.40;;;5.90;67.30;;;;;;5073077;28;20036;-20
2022/01/20 00:43:42;;;;;;;32.85;15.43;;;5.80;67.10;;;;;;5073381;28;20028;-20
2022/01/20 00:46:08;;;;;;;61.00;21.83;;;5.80;66.70;;;;;;5072996;28;20502;-20
2022/01/20 00:48:34;;;;;;;27.77;13.43;;;5.70;67.00;;;;;;5073398;28;20028;-21
2022/01/20 00:51:00;;;;;;;39.88;18.20;;;5.70;68.20;;;;;;5072854;28;20071;-20
2022/01/20 00:53:26;;;;;;;70.45;27.00;;;5.70;68.20;;;;;;5073330;28;20032;-20
2022/01/20 00:55:52;;;;;;;35.55;17.50;;;5.60;68.80;;;;;;5071691;28;20097;-20
2022/01/20 00:58:18;;;;;;;29.33;14.68;;;5.60;68.60;;;;;;5072773;28;20020;-20
2022/01/20 01:00:44;;;;;;;20.60;9.88;;;5.60;67.80;;;;;;5073102;28;20118;-20
2022/01/20 01:03:10;;;;;;;49.85;21.63;;;5.60;67.40;;;;;;5071910;28;20377;-20
2022/01/20 01:05:44;;;;;;;31.35;14.30;;;5.60;69.10;;;;;;5073086;28;20020;-20
2022/01/20 01:08:11;;;;;;;48.15;21.92;;;5.60;68.70;;;;;;5073120;28;20074;-20
2022/01/20 01:10:39;;;;;;;24.30;10.82;;;5.60;69.00;;;;;;5072529;28;20033;-20
2022/01/20 01:13:10;;;;;;;43.78;18.75;;;5.60;68.50;;;;;;5072959;28;20033;-20
2022/01/20 01:15:42;;;;;;;68.53;27.45;;;5.50;69.30;;;;;;5072888;28;20377;-20
2022/01/20 01:23:27;;;;;;;62.22;25.95;;;5.40;69.30;;;;;;5073261;28;20025;-20
2022/01/20 01:25:56;;;;;;;28.20;14.32;;;5.30;71.10;;;;;;5072675;28;20020;-20
2022/01/20 01:28:26;;;;;;;56.13;21.88;;;5.30;70.10;;;;;;5072390;28;20024;-20
2022/01/20 01:33:40;;;;;;;28.20;14.50;;;5.20;70.60;;;;;;5072878;28;20043;-20
2022/01/20 01:36:08;;;;;;;49.15;21.35;;;5.10;70.00;;;;;;5072742;28;20043;-20
2022/01/20 01:38:42;;;;;;;35.97;17.25;;;5.10;69.80;;;;;;5071221;28;20448;-20
2022/01/20 01:41:12;;;;;;;29.85;14.13;;;5.00;70.00;;;;;;5073412;28;20025;-20
2022/01/20 01:43:43;;;;;;;28.38;14.40;;;5.00;69.70;;;;;;5072561;28;20028;-20
2022/01/20 01:46:12;;;;;;;42.75;20.08;;;5.00;70.30;;;;;;5072550;28;20107;-20
2022/01/20 01:48:42;;;;;;;19.98;9.90;;;5.00;69.50;;;;;;5075937;28;20064;-20
2022/01/20 01:51:09;;;;;;;31.42;16.00;;;5.00;69.10;;;;;;5075952;28;20083;-20
2022/01/20 01:53:37;;;;;;;39.38;18.15;;;5.00;69.30;;;;;;5075927;28;20089;-20
2022/01/20 01:56:04;;;;;;;26.85;12.98;;;5.00;69.60;;;;;;5076271;28;20027;-20
2022/01/20 01:58:31;;;;;;;21.27;10.38;;;5.00;70.60;;;;;;5076043;28;20020;-19
2022/01/20 02:00:58;;;;;;;46.78;19.95;;;5.00;70.50;;;;;;5075683;28;20094;-21
2022/01/20 02:03:24;;;;;;;34.28;15.20;;;5.10;69.80;;;;;;5076693;28;20024;-20
2022/01/20 02:19:09;;;;;;;32.55;16.55;;;5.00;69.80;;;;;;5076118;28;20031;-20
2022/01/20 02:21:50;;;;;;;28.58;15.13;;;5.00;69.70;;;;;;5075457;28;20033;-20
2022/01/20 02:24:17;;;;;;;54.95;24.70;;;5.00;69.40;;;;;;5075291;28;20031;-20
2022/01/20 02:26:43;;;;;;;47.28;22.00;;;5.00;70.80;;;;;;5075725;28;20029;-20
2022/01/20 02:29:10;;;;;;;54.13;25.02;;;5.00;71.60;;;;;;5075447;28;20021;-20
2022/01/20 02:31:37;;;;;;;53.03;23.70;;;4.90;72.00;;;;;;5075372;28;20029;-20
2022/01/20 02:34:03;;;;;;;49.10;21.55;;;4.90;72.10;;;;;;5075508;28;20036;-20
2022/01/20 02:36:31;;;;;;;47.28;23.15;;;4.90;71.40;;;;;;5075021;28;20139;-20
2022/01/20 02:39:04;;;;;;;42.47;17.23;;;4.90;71.60;;;;;;5075176;28;20489;-20
2022/01/20 02:46:59;;;;;;;;;;;4.90;72.40;;;;;;5075726;28;20450;-20
2022/01/20 02:49:25;;;;;;;56.65;25.63;;;4.90;73.40;;;;;;5074708;28;19998;-21
2022/01/20 02:51:56;;;;;;;51.97;23.15;;;4.90;73.60;;;;;;5073626;28;20101;-21
2022/01/20 02:54:23;;;;;;;50.78;22.63;;;4.90;72.60;;;;;;5074650;28;20040;-20
2022/01/20 02:56:50;;;;;;;63.95;26.73;;;4.90;72.70;;;;;;5074911;28;20024;-20
2022/01/20 02:59:16;;;;;;;71.25;27.95;;;4.90;73.30;;;;;;5073863;28;20036;-20
2022/01/20 03:01:42;;;;;;;49.35;20.33;;;4.80;73.90;;;;;;5074962;28;20095;-20
2022/01/20 03:04:09;;;;;;;57.28;24.33;;;4.80;73.20;;;;;;5075030;28;20024;-20
2022/01/20 03:06:35;;;;;;;50.03;21.55;;;4.80;73.10;;;;;;5074490;28;20480;-20
2022/01/20 03:09:01;;;;;;;48.72;21.45;;;4.80;72.50;;;;;;5074588;28;20032;-20
2022/01/20 03:11:28;;;;;;;53.05;25.38;;;4.80;72.70;;;;;;5074732;28;20465;-20
2022/01/20 03:13:54;;;;;;;62.50;25.15;;;4.70;73.20;;;;;;5074672;28;20040;-20
2022/01/20 03:16:20;;;;;;;55.85;23.52;;;4.70;73.30;;;;;;5073253;28;20541;-20
2022/01/20 03:18:46;;;;;;;44.53;20.55;;;4.70;73.00;;;;;;5075022;28;20027;-20
2022/01/20 03:21:12;;;;;;;48.83;21.77;;;4.70;73.00;;;;;;5074660;28;20107;-20
2022/01/20 03:23:38;;;;;;;44.97;18.70;;;4.60;72.50;;;;;;5074593;28;20490;-20
2022/01/20 03:26:03;;;;;;;30.83;13.98;;;4.60;72.40;;;;;;5074211;28;20510;-20
2022/01/20 03:28:30;;;;;;;40.13;17.10;;;4.70;71.60;;;;;;5074107;28;20060;-20
2022/01/20 03:30:55;;;;;;;25.77;10.35;;;4.70;71.90;;;;;;5074382;28;20025;-20
2022/01/20 03:33:21;;;;;;;26.77;12.48;;;4.70;71.30;;;;;;5074366;28;20476;-20
2022/01/20 03:35:48;;;;;;;29.65;13.07;;;4.80;71.30;;;;;;5074039;28;20362;-20
2022/01/20 03:38:14;;;;;;;56.88;24.45;;;4.80;70.90;;;;;;5073768;28;20036;-21
2022/01/20 03:40:40;;;;;;;40.05;17.30;;;4.80;70.80;;;;;;5074576;28;20486;-20
2022/01/20 03:43:06;;;;;;;41.40;18.85;;;4.90;70.80;;;;;;5073030;28;20020;-20
2022/01/20 03:45:33;;;;;;;33.97;16.13;;;4.90;71.30;;;;;;5074003;28;20031;-20
2022/01/20 03:48:07;;;;;;;50.67;23.60;;;4.90;70.90;;;;;;5073824;28;20362;-21
2022/01/20 03:53:19;;;;;;;59.20;25.58;;;4.90;72.10;;;;;;5074627;28;20512;-20
2022/01/20 03:55:45;;;;;;;48.92;22.23;;;4.80;71.50;;;;;;5074066;28;20020;-19
2022/01/20 03:58:11;;;;;;;52.13;24.20;;;4.80;71.60;;;;;;5073992;28;20028;-20
2022/01/20 04:00:37;;;;;;;53.17;22.13;;;4.80;72.20;;;;;;5073364;28;20035;-20
2022/01/20 04:03:03;;;;;;;45.42;19.83;;;4.80;72.60;;;;;;5073504;28;20025;-19
2022/01/20 04:05:29;;;;;;;46.75;20.52;;;4.80;72.10;;;;;;5073716;28;20070;-20
2022/01/20 04:07:55;;;;;;;46.50;20.65;;;4.70;71.40;;;;;;5073684;28;20036;-19
2022/01/20 04:10:21;;;;;;;47.47;20.73;;;4.70;71.60;;;;;;5071710;28;20052;-20
2022/01/20 04:12:47;;;;;;;26.00;10.77;;;4.70;71.60;;;;;;5073595;28;20086;-20
2022/01/20 04:15:16;;;;;;;50.70;21.13;;;4.70;71.20;;;;;;5073570;28;20028;-20
2022/01/20 04:17:44;;;;;;;32.47;14.02;;;4.80;71.30;;;;;;5073662;28;20024;-20
2022/01/20 04:20:11;;;;;;;56.35;24.38;;;4.80;71.30;;;;;;5074190;28;20042;-20
2022/01/20 04:22:37;;;;;;;47.95;21.45;;;4.80;71.50;;;;;;5073015;28;20028;-19
2022/01/20 04:25:04;;;;;;;46.90;19.92;;;4.90;71.80;;;;;;5073894;28;20016;-20
2022/01/20 04:27:31;;;;;;;42.47;18.25;;;4.90;71.70;;;;;;5073178;28;20024;-20
2022/01/20 04:29:57;;;;;;;63.05;26.73;;;4.90;71.70;;;;;;5073440;28;20074;-20
2022/01/20 04:32:24;;;;;;;44.88;18.73;;;4.90;72.00;;;;;;5073272;28;20438;-19
2022/01/20 04:34:50;;;;;;;39.72;16.95;;;4.90;72.40;;;;;;5073406;28;20028;-20
2022/01/20 04:37:17;;;;;;;47.05;21.98;;;4.90;72.20;;;;;;5073116;28;20033;-20
2022/01/20 04:39:47;;;;;;;27.90;11.70;;;4.90;71.70;;;;;;5071874;28;20024;-20
2022/01/20 04:42:13;;;;;;;18.30;9.10;;;4.90;71.30;;;;;;5072976;28;20028;-22
2022/01/20 04:47:21;;;;;;;29.88;13.75;;;4.90;71.00;;;;;;5072950;28;20033;-19
2022/01/20 04:58:01;;;;;;;58.25;22.90;;;4.90;71.70;;;;;;5073276;28;20043;-20
2022/01/20 05:00:27;;;;;;;37.90;14.75;;;4.90;71.60;;;;;;5071430;28;20028;-21
2022/01/20 05:02:53;;;;;;;49.20;20.40;;;4.90;71.70;;;;;;5072890;28;20476;-21
2022/01/20 05:05:19;;;;;;;58.60;23.00;;;4.90;72.20;;;;;;5072829;28;20031;-21
2022/01/20 05:07:46;;;;;;;41.78;17.25;;;4.90;72.20;;;;;;5073114;28;20029;-20
2022/01/20 05:10:12;;;;;;;29.67;12.55;;;5.00;71.40;;;;;;5073116;28;20032;-21
2022/01/20 05:15:18;;;;;;;51.00;22.85;;;5.00;71.20;;;;;;5072810;28;20036;-20
2022/01/20 05:17:44;;;;;;;70.07;29.55;;;5.10;71.50;;;;;;5072731;28;20032;-21
2022/01/20 05:20:10;;;;;;;69.80;28.90;;;5.10;72.50;;;;;;5073065;28;20029;-21
2022/01/20 05:22:37;;;;;;;62.53;24.67;;;5.10;73.10;;;;;;5074765;28;20032;-21
2022/01/20 05:25:03;;;;;;;50.90;18.40;;;5.00;73.10;;;;;;5076617;28;20028;-20
2022/01/20 05:27:30;;;;;;;41.67;17.13;;;5.00;72.70;;;;;;5076856;28;20365;-21
2022/01/20 05:29:57;;;;;;;45.55;18.08;;;5.00;72.50;;;;;;5077397;28;20031;-21
2022/01/20 05:32:23;;;;;;;52.92;21.05;;;4.90;72.50;;;;;;5077055;28;20027;-22
2022/01/20 05:34:49;;;;;;;39.03;16.27;;;5.00;71.70;;;;;;5076942;28;20032;-21
2022/01/20 05:37:16;;;;;;;51.28;21.55;;;4.90;71.70;;;;;;5076582;28;20024;-21
2022/01/20 05:39:42;;;;;;;51.15;19.08;;;4.90;72.50;;;;;;5075078;28;20468;-21
2022/01/20 05:42:08;;;;;;;47.70;19.65;;;4.90;72.30;;;;;;5075278;28;20062;-21
2022/01/20 05:44:35;;;;;;;63.03;24.63;;;4.90;72.60;;;;;;5075984;28;20373;-21
2022/01/20 05:47:06;;;;;;;51.20;21.50;;;4.90;73.70;;;;;;5076348;28;20017;-21
2022/01/20 05:49:32;;;;;;;39.03;15.63;;;4.90;73.20;;;;;;5076145;28;20074;-21
2022/01/20 05:51:58;;;;;;;39.42;16.92;;;4.90;72.60;;;;;;5075842;28;20040;-21
2022/01/20 05:54:24;;;;;;;51.28;19.48;;;4.90;72.40;;;;;;5075742;28;20498;-20
2022/01/20 05:56:52;;;;;;;48.05;20.10;;;4.90;72.30;;;;;;5075994;28;20115;-21
2022/01/20 05:59:18;;;;;;;34.80;14.27;;;5.00;72.20;;;;;;5076266;28;20025;-21
2022/01/20 06:01:53;;;;;;;54.90;22.17;;;5.00;71.90;;;;;;5076031;28;20025;-21
2022/01/20 06:04:20;;;;;;;45.47;17.70;;;5.00;71.90;;;;;;5076530;28;20024;-20
2022/01/20 06:06:46;;;;;;;21.83;8.98;;;5.00;71.90;;;;;;5076419;28;20035;-21
2022/01/20 06:09:12;;;;;;;43.00;16.08;;;5.00;71.40;;;;;;5076022;28;20017;-21
2022/01/20 06:11:38;;;;;;;58.70;22.63;;;5.00;71.30;;;;;;5076045;28;20052;-21
2022/01/20 06:14:05;;;;;;;44.58;17.92;;;5.00;72.70;;;;;;5074370;28;20477;-21
2022/01/20 06:16:32;;;;;;;54.28;22.45;;;5.00;72.30;;;;;;5075952;28;20464;-21
2022/01/20 06:18:58;;;;;;;62.63;23.55;;;5.00;72.60;;;;;;5075636;28;20501;-21
2022/01/20 06:21:24;;;;;;;66.78;26.05;;;5.00;73.10;;;;;;5075563;28;20036;-20
2022/01/20 06:23:51;;;;;;;59.08;23.27;;;4.90;73.40;;;;;;5075770;28;20116;-21
2022/01/20 06:26:17;;;;;;;69.82;25.58;;;4.90;73.10;;;;;;5074068;28;20485;-21
2022/01/20 06:28:43;;;;;;;56.35;23.40;;;4.90;73.10;;;;;;5074148;28;20063;-21
2022/01/20 06:31:10;;;;;;;66.68;26.73;;;4.90;73.60;;;;;;5075590;28;20029;-20
2022/01/20 06:33:36;;;;;;;61.97;26.38;;;4.90;74.30;;;;;;5075266;28;20111;-20
2022/01/20 06:36:03;;;;;;;50.47;21.42;;;4.90;73.90;;;;;;5075273;28;20085;-21
2022/01/20 06:38:29;;;;;;;49.50;20.88;;;4.90;73.70;;;;;;5075754;28;20081;-21
2022/01/20 06:40:56;;;;;;;49.92;21.27;;;4.90;73.40;;;;;;5074354;28;20434;-20
2022/01/20 06:43:22;;;;;;;52.35;20.73;;;4.90;73.20;;;;;;5075341;28;20013;-20
2022/01/20 06:45:48;;;;;;;54.55;23.27;;;4.90;73.70;;;;;;5075030;28;20385;-20
2022/01/20 06:48:14;;;;;;;48.25;20.00;;;4.90;73.80;;;;;;5075298;28;20033;-22
2022/01/20 06:50:40;;;;;;;55.38;22.85;;;4.90;73.30;;;;;;5074834;28;20534;-21
2022/01/20 06:53:06;;;;;;;63.97;25.48;;;4.90;74.10;;;;;;5075133;28;20035;-21
2022/01/20 06:55:34;;;;;;;62.13;26.40;;;4.90;73.30;;;;;;5075053;28;20032;-21
2022/01/20 06:57:59;;;;;;;66.25;27.02;;;4.90;73.70;;;;;;5074813;28;20025;-21
2022/01/20 07:00:25;;;;;;;55.30;24.20;;;4.90;73.50;;;;;;5073283;28;20031;-21
2022/01/20 07:02:52;;;;;;;46.97;19.95;;;4.90;73.20;;;;;;5075046;28;20353;-21
2022/01/20 07:05:21;;;;;;;60.63;28.38;;;4.90;72.90;;;;;;5074963;28;20040;-20
2022/01/20 07:07:47;;;;;;;40.53;18.42;;;4.90;72.60;;;;;;5074932;28;20025;-21
2022/01/20 07:10:16;;;;;;;30.80;13.30;;;4.90;72.70;;;;;;5074583;28;20025;-20
2022/01/20 07:12:44;;;;;;;42.70;20.08;;;4.90;72.50;;;;;;5074888;28;20025;-21
2022/01/20 07:15:11;;;;;;;34.78;16.65;;;4.90;72.30;;;;;;5074746;28;20257;-21
2022/01/20 07:17:37;;;;;;;32.95;15.25;;;5.00;72.20;;;;;;5074752;28;20036;-21
2022/01/20 07:20:04;;;;;;;34.50;15.07;;;5.00;72.20;;;;;;5073233;28;20392;-21
2022/01/20 07:22:30;;;;;;;31.23;14.18;;;5.00;72.00;;;;;;5074096;28;20527;-21
2022/01/20 07:24:56;;;;;;;30.15;15.40;;;5.10;71.90;;;;;;5074716;28;20025;-20
2022/01/20 07:27:22;;;;;;;31.67;14.93;;;5.10;71.60;;;;;;5074239;28;20035;-21
2022/01/20 07:29:48;;;;;;;46.00;21.48;;;5.20;71.70;;;;;;5074577;28;20385;-21
2022/01/20 07:32:14;;;;;;;40.33;18.95;;;5.20;72.20;;;;;;5074172;28;20020;-21
2022/01/20 07:34:40;;;;;;;37.35;16.63;;;5.20;71.60;;;;;;5074325;28;20095;-21
2022/01/20 07:37:06;;;;;;;58.95;32.22;;;5.20;71.50;;;;;;5074306;28;20025;-21
2022/01/20 07:39:33;;;;;;;57.80;26.77;;;5.10;71.30;;;;;;5074501;28;20020;-20
2022/01/20 07:42:00;;;;;;;43.83;20.67;;;5.10;71.40;;;;;;5074300;28;20051;-21
2022/01/20 07:44:25;;;;;;;33.20;15.23;;;5.10;71.50;;;;;;5073753;28;20028;-20
2022/01/20 07:46:53;;;;;;;36.45;17.25;;;5.10;71.20;;;;;;5073894;28;20028;-20
2022/01/20 07:49:19;;;;;;;31.88;15.60;;;5.10;71.00;;;;;;5073798;28;20078;-21
2022/01/20 07:51:45;;;;;;;34.58;16.75;;;5.10;71.30;;;;;;5073612;28;20054;-21
2022/01/20 07:54:11;;;;;;;57.95;25.38;;;5.10;71.40;;;;;;5073958;28;20037;-21
2022/01/20 07:56:37;;;;;;;37.63;17.33;;;5.00;71.70;;;;;;5073583;28;20024;-21
2022/01/20 07:59:03;;;;;;;41.90;21.27;;;5.10;71.30;;;;;;5073676;28;20173;-21
2022/01/20 08:01:29;;;;;;;86.07;45.72;;;5.10;71.40;;;;;;5072298;28;20069;-20
2022/01/20 08:03:55;;;;;;;46.38;21.55;;;5.10;71.50;;;;;;5073898;28;20021;-21
2022/01/20 08:06:25;;;;;;;41.10;20.58;;;5.20;71.40;;;;;;5073635;28;20028;-21
2022/01/20 08:08:51;;;;;;;47.83;24.35;;;5.20;71.50;;;;;;5074305;28;20115;-21
2022/01/20 08:11:19;;;;;;;49.25;24.75;;;5.30;72.10;;;;;;5073681;28;20472;-21
2022/01/20 08:13:45;;;;;;;45.97;22.70;;;5.30;72.00;;;;;;5073342;28;20051;-21
2022/01/20 08:16:11;;;;;;;52.72;25.35;;;5.40;72.10;;;;;;5073461;28;20043;-21
2022/01/20 08:18:37;;;;;;;45.03;22.27;;;5.40;72.50;;;;;;5072293;28;20025;-21
2022/01/20 08:21:03;;;;;;;61.75;27.00;;;5.40;72.10;;;;;;5073907;28;20106;-21
2022/01/20 08:23:29;;;;;;;57.17;27.90;;;5.40;72.40;;;;;;5073593;28;20024;-21
2022/01/20 08:25:55;;;;;;;50.25;24.83;;;5.50;72.30;;;;;;5073510;28;20028;-21
2022/01/20 08:28:22;;;;;;;56.47;27.60;;;5.50;71.90;;;;;;5072829;28;20020;-22
2022/01/20 08:30:49;;;;;;;42.25;21.85;;;5.50;72.00;;;;;;5073173;28;20119;-21
2022/01/20 08:33:16;;;;;;;35.20;18.15;;;5.60;71.40;;;;;;5073099;28;20024;-21
2022/01/20 08:35:43;;;;;;;37.38;19.88;;;5.60;71.50;;;;;;5073126;28;20028;-21
2022/01/20 08:38:10;;;;;;;41.40;20.52;;;5.70;71.30;;;;;;5073106;28;20516;-21
2022/01/20 08:40:38;;;;;;;51.45;25.20;;;5.80;71.30;;;;;;5073245;28;20032;-21
2022/01/20 08:43:06;;;;;;;57.28;26.27;;;5.90;71.30;;;;;;5073052;28;20021;-21
2022/01/20 08:45:35;;;;;;;58.05;28.83;;;5.90;71.50;;;;;;5072916;28;20396;-21
2022/01/20 08:48:02;;;;;;;43.15;22.35;;;5.90;71.20;;;;;;5073336;28;20029;-21
2022/01/20 08:50:30;;;;;;;31.70;16.25;;;6.00;70.80;;;;;;5072484;28;20565;-21
2022/01/20 08:52:57;;;;;;;49.75;25.88;;;6.10;70.60;;;;;;5071720;28;20388;-21
2022/01/20 08:55:26;;;;;;;46.72;23.88;;;6.10;70.80;;;;;;5073220;28;20025;-20
2022/01/20 08:57:53;;;;;;;43.10;21.42;;;6.20;70.70;;;;;;5077473;28;20074;-21
2022/01/20 09:00:21;;;;;;;54.53;27.77;;;6.30;70.50;;;;;;5076820;28;20056;-21
2022/01/20 09:02:47;;;;;;;47.75;24.63;;;6.40;70.30;;;;;;5077366;28;20486;-21
2022/01/20 09:05:13;;;;;;;52.42;27.10;;;6.50;70.30;;;;;;5076981;28;20021;-20
2022/01/20 09:07:39;;;;;;;57.60;26.30;;;6.60;70.00;;;;;;5077295;28;20028;-20
2022/01/20 09:10:07;;;;;;;60.33;29.65;;;6.80;69.70;;;;;;5076914;28;20518;-21
2022/01/20 09:17:48;;;;;;;59.45;28.42;;;7.00;69.60;;;;;;5077155;28;20116;-20
2022/01/20 09:20:14;;;;;;;53.55;26.58;;;7.00;69.40;;;;;;5076546;28;20057;-21
2022/01/20 09:22:40;;;;;;;57.53;27.75;;;7.10;69.40;;;;;;5077206;28;20017;-20
2022/01/20 09:25:08;;;;;;;58.92;27.33;;;7.10;69.20;;;;;;5076744;28;20036;-21
2022/01/20 09:27:34;;;;;;;50.55;24.08;;;7.20;69.10;;;;;;5076871;28;20041;-21
2022/01/20 09:30:02;;;;;;;48.88;24.08;;;7.30;68.90;;;;;;5076840;28;20063;-20
2022/01/20 09:32:31;;;;;;;55.85;26.92;;;7.40;69.00;;;;;;5076744;28;20012;-21
2022/01/20 09:34:57;;;;;;;44.58;20.80;;;7.50;68.80;;;;;;5076357;28;20060;-21
2022/01/20 09:37:24;;;;;;;53.60;26.17;;;7.70;68.40;;;;;;5076943;28;20059;-21
2022/01/20 09:39:50;;;;;;;59.30;28.67;;;7.90;67.90;;;;;;5076282;28;20517;-21
2022/01/20 09:42:16;;;;;;;44.05;21.95;;;8.10;67.40;;;;;;5076088;28;20111;-21
2022/01/20 09:44:44;;;;;;;54.08;25.65;;;8.20;67.30;;;;;;5076281;28;20022;-21
2022/01/20 09:47:12;;;;;;;55.20;27.92;;;8.40;66.60;;;;;;5076321;28;20029;-21
2022/01/20 09:49:38;;;;;;;45.97;22.95;;;8.50;65.90;;;;;;5075934;28;20029;-22
2022/01/20 09:52:04;;;;;;;49.17;23.63;;;8.50;65.80;;;;;;5076085;28;20028;-20
2022/01/20 09:54:31;;;;;;;50.75;26.17;;;8.60;65.80;;;;;;5075801;28;20063;-21
2022/01/20 09:56:58;;;;;;;56.20;27.33;;;8.70;65.70;;;;;;5075989;28;20032;-20
2022/01/20 09:59:24;;;;;;;50.83;25.45;;;8.70;65.50;;;;;;5076309;28;20040;-21
2022/01/20 10:01:56;;;;;;;57.55;28.30;;;8.70;65.50;;;;;;5075992;28;20507;-21
2022/01/20 10:04:32;;;;;;;45.60;24.25;;;8.70;65.30;;;;;;5076021;28;20047;-20
2022/01/20 10:07:08;;;;;;;48.38;24.20;;;8.70;65.30;;;;;;5075644;28;20023;-20
2022/01/20 10:09:41;;;;;;;53.95;25.55;;;8.80;65.40;;;;;;5075888;28;20380;-20
2022/01/20 10:12:10;;;;;;;48.08;24.55;;;8.80;65.40;;;;;;5076090;28;20066;-21
2022/01/20 10:14:50;;;;;;;61.63;29.83;;;8.90;65.50;;;;;;5075751;28;20032;-21
2022/01/20 10:17:22;;;;;;;59.83;29.08;;;8.90;65.10;;;;;;5075970;28;20021;-21
2022/01/20 10:19:53;;;;;;;47.65;23.77;;;8.90;64.90;;;;;;5075749;28;20028;-21
2022/01/20 10:22:23;;;;;;;57.30;29.92;;;9.00;64.90;;;;;;5075691;28;20082;-21
2022/01/20 10:25:02;;;;;;;55.97;28.60;;;9.10;64.60;;;;;;5075780;28;20024;-20
2022/01/20 10:27:33;;;;;;;46.45;24.23;;;9.20;64.60;;;;;;5075813;28;20024;-21
2022/01/20 10:30:09;;;;;;;53.95;28.02;;;9.30;64.70;;;;;;5075740;28;20395;-21
2022/01/20 10:32:42;;;;;;;57.05;29.45;;;9.50;63.80;;;;;;5075199;28;20027;-21
2022/01/20 10:35:11;;;;;;;45.77;23.33;;;9.40;63.00;;;;;;5075582;28;20067;-21
2022/01/20 10:37:52;;;;;;;47.47;25.85;;;9.60;63.30;;;;;;5074069;28;20029;-20
2022/01/20 10:40:17;;;;;;;40.22;20.98;;;9.70;63.20;;;;;;5075069;28;20059;-20
2022/01/20 10:42:46;;;;;;;40.70;21.60;;;9.90;63.20;;;;;;5075522;28;20056;-21
2022/01/20 10:45:26;;;;;;;47.97;26.35;;;10.10;62.60;;;;;;5075488;28;20091;-21
2022/01/20 10:47:58;;;;;;;49.17;26.95;;;10.10;61.50;;;;;;5075147;28;20074;-21
2022/01/20 10:50:27;;;;;;;39.78;20.70;;;10.20;60.60;;;;;;5074846;28;20052;-21
2022/01/20 10:52:54;;;;;;;47.17;23.85;;;10.30;61.20;;;;;;5074940;28;20499;-20
2022/01/20 10:55:35;;;;;;;35.85;19.33;;;10.40;60.70;;;;;;5074965;28;20074;-21
2022/01/20 10:58:22;;;;;;;45.15;23.33;;;10.50;60.40;;;;;;5074894;28;20557;-20
2022/01/20 11:00:51;;;;;;;44.83;23.73;;;10.60;60.30;;;;;;5075152;28;20034;-20
2022/01/20 11:03:21;;;;;;;44.25;24.00;;;10.70;60.00;;;;;;5075660;28;20021;-21
2022/01/20 11:05:51;;;;;;;46.63;22.50;;;10.80;59.80;;;;;;5074730;28;20048;-20
2022/01/20 11:08:18;;;;;;;40.25;21.85;;;10.90;59.90;;;;;;5074831;28;20021;-21
2022/01/20 11:10:45;;;;;;;42.10;21.80;;;11.10;60.00;;;;;;5074947;28;20112;-21
2022/01/20 11:13:14;;;;;;;49.53;26.85;;;11.20;59.70;;;;;;5074716;28;20039;-21
2022/01/20 11:15:41;;;;;;;47.30;24.58;;;11.30;58.90;;;;;;5074441;28;20508;-21
2022/01/20 11:18:11;;;;;;;55.25;29.92;;;11.50;59.40;;;;;;5074485;28;20036;-20
2022/01/20 11:20:56;;;;;;;47.10;25.23;;;11.50;58.30;;;;;;5072060;28;20499;-20
2022/01/20 11:23:22;;;;;;;44.47;24.80;;;11.60;57.70;;;;;;5074450;28;20039;-21
2022/01/20 11:25:49;;;;;;;51.55;27.00;;;11.70;58.10;;;;;;5074941;28;20025;-20
2022/01/20 11:28:21;;;;;;;44.70;24.95;;;11.80;58.50;;;;;;5074163;28;20459;-21
2022/01/20 11:31:01;;;;;;;38.70;21.63;;;12.00;58.20;;;;;;5074148;28;20525;-20
2022/01/20 11:33:37;;;;;;;48.17;25.63;;;12.20;57.80;;;;;;5074606;28;20036;-20
2022/01/20 11:36:04;;;;;;;37.33;20.08;;;12.50;56.90;;;;;;5074153;28;20035;-20
2022/01/20 11:38:43;;;;;;;40.65;22.13;;;12.80;57.30;;;;;;5074149;28;20164;-20
2022/01/20 11:41:14;;;;;;;51.50;26.40;;;13.00;56.60;;;;;;5072448;28;20094;-20
2022/01/20 11:43:51;;;;;;;46.92;25.05;;;13.40;55.60;;;;;;5074050;28;20071;-20
2022/01/20 11:46:25;;;;;;;36.22;19.75;;;13.70;55.40;;;;;;5074157;28;20013;-20
2022/01/20 11:49:00;;;;;;;46.85;25.70;;;13.90;54.90;;;;;;5074260;28;20032;-20
2022/01/20 11:51:43;;;;;;;50.70;25.70;;;14.20;54.00;;;;;;5073613;28;20504;-20
2022/01/20 11:54:11;;;;;;;51.15;25.63;;;14.40;53.10;;;;;;5073649;28;20032;-20
2022/01/20 11:56:40;;;;;;;45.28;24.40;;;14.70;53.10;;;;;;5073526;28;20028;-20
2022/01/20 11:59:09;;;;;;;33.35;16.83;;;14.90;52.30;;;;;;5073973;28;20028;-20
2022/01/20 12:01:53;;;;;;;51.35;27.45;;;15.20;52.50;;;;;;5073529;28;20021;-21
2022/01/20 12:04:32;;;;;;;49.95;26.42;;;15.40;51.30;;;;;;5073423;28;20035;-20
2022/01/20 12:06:58;;;;;;;52.80;28.50;;;15.60;50.30;;;;;;5074343;28;20029;-21
2022/01/20 12:09:31;;;;;;;56.90;28.85;;;15.80;49.90;;;;;;5074193;28;20032;-20
2022/01/20 12:11:57;;;;;;;72.05;37.38;;;15.90;49.70;;;;;;5073692;28;20060;-20
2022/01/20 12:14:35;;;;;;;64.20;33.17;;;15.90;47.50;;;;;;5073221;28;20025;-21
2022/01/20 12:17:05;;;;;;;70.57;36.15;;;15.70;48.40;;;;;;5073311;28;20028;-20
2022/01/20 12:19:31;;;;;;;66.40;34.50;;;15.70;47.10;;;;;;5073675;28;20136;-21
2022/01/20 12:21:57;;;;;;;54.10;27.08;;;15.40;48.60;;;;;;5073927;28;20033;-21
2022/01/20 12:24:23;;;;;;;69.43;35.75;;;15.50;49.50;;;;;;5073390;28;20025;-20
2022/01/20 12:26:49;;;;;;;57.53;30.52;;;15.60;49.10;;;;;;5073247;28;20028;-21
2022/01/20 12:29:15;;;;;;;66.57;32.78;;;15.70;49.60;;;;;;5073279;28;20028;-20
2022/01/20 12:31:53;;;;;;;61.40;31.92;;;15.90;49.20;;;;;;5072790;28;20038;-20
2022/01/20 12:34:20;;;;;;;60.22;31.67;;;15.90;48.70;;;;;;5073248;28;20040;-20
2022/01/20 12:36:58;;;;;;;62.15;32.15;;;16.10;49.10;;;;;;5071978;28;20029;-21
2022/01/20 12:39:28;;;;;;;54.70;27.05;;;16.20;48.00;;;;;;5073581;28;20089;-20
2022/01/20 12:41:59;;;;;;;56.95;29.88;;;16.30;48.50;;;;;;5073386;28;20024;-21
2022/01/20 12:45:01;;;;;;;59.55;32.10;;;16.30;47.80;;;;;;5073273;28;20031;-21
2022/01/20 12:47:29;;;;;;;57.60;30.13;;;16.10;47.00;;;;;;5073330;28;20028;-21
2022/01/20 12:49:56;;;;;;;54.10;28.60;;;15.90;49.00;;;;;;5073315;28;20040;-20
2022/01/20 12:52:22;;;;;;;63.05;33.47;;;15.70;48.90;;;;;;5073167;28;20025;-21
2022/01/20 12:54:49;;;;;;;61.85;31.20;;;15.40;49.40;;;;;;5072896;28;20029;-21
2022/01/20 12:57:15;;;;;;;61.13;30.40;;;15.10;49.50;;;;;;5073001;28;20129;-21
2022/01/20 12:59:44;;;;;;;56.63;29.98;;;14.70;50.10;;;;;;5072830;28;20047;-21
2022/01/20 13:02:23;;;;;;;54.78;27.30;;;14.40;50.90;;;;;;5073105;28;20025;-20
2022/01/20 13:05:00;;;;;;;48.92;26.10;;;14.10;51.60;;;;;;5073340;28;20048;-20
2022/01/20 13:07:28;;;;;;;48.53;25.95;;;13.90;52.00;;;;;;5073195;28;20029;-21
2022/01/20 13:10:04;;;;;;;61.30;33.42;;;13.70;52.60;;;;;;5073126;28;20411;-20
2022/01/20 13:12:36;;;;;;;55.50;29.02;;;13.40;52.80;;;;;;5072620;28;20381;-20
2022/01/20 13:15:04;;;;;;;60.95;33.33;;;13.20;53.40;;;;;;5073047;28;20040;-20
2022/01/20 13:17:32;;;;;;;64.60;34.00;;;13.10;53.60;;;;;;5072753;28;20497;-21
2022/01/20 13:20:00;;;;;;;57.80;31.77;;;12.90;53.80;;;;;;5073049;28;20024;-21
2022/01/20 13:25:13;;;;;;;55.80;31.75;;;12.60;55.00;;;;;;5072798;28;20078;-20
2022/01/20 13:27:52;;;;;;;51.35;29.27;;;12.50;55.40;;;;;;5072664;28;20107;-21
2022/01/20 13:30:36;;;;;;;54.22;29.63;;;12.40;55.70;;;;;;5072473;28;20366;-20
2022/01/20 13:33:17;;;;;;;56.70;32.58;;;12.20;55.90;;;;;;5073667;28;20048;-20
2022/01/20 13:35:52;;;;;;;56.13;32.22;;;12.00;56.30;;;;;;5072971;28;20021;-20
2022/01/20 13:38:19;;;;;;;57.92;30.88;;;11.90;56.70;;;;;;5054482;28;20485;-21
2022/01/20 13:40:47;;;;;;;56.17;30.70;;;11.70;57.00;;;;;;5072816;28;20028;-21
2022/01/20 13:46:03;;;;;;;57.30;32.85;;;11.40;57.90;;;;;;5076257;28;20052;-21
2022/01/20 13:48:34;;;;;;;59.85;32.95;;;11.10;58.20;;;;;;5076267;28;20033;-20
2022/01/20 13:51:03;;;;;;;57.70;32.95;;;11.00;58.50;;;;;;5076076;28;20053;-20
2022/01/20 13:53:31;;;;;;;52.47;28.55;;;10.90;58.80;;;;;;5076374;28;20366;-20
2022/01/20 13:56:02;;;;;;;56.08;31.02;;;10.90;59.10;;;;;;5076304;28;20090;-20
2022/01/20 13:58:31;;;;;;;57.72;29.83;;;10.70;59.20;;;;;;5076582;28;20025;-20
2022/01/20 14:00:59;;;;;;;66.47;34.55;;;10.60;59.50;;;;;;5075835;28;20492;-21
2022/01/20 14:03:25;;;;;;;59.28;30.50;;;10.50;59.70;;;;;;5076117;28;20017;-20